sensor_id;sensor_type;location;lat;lon;timestamp;P1;durP1;ratioP1;P2;durP2;ratioP2
78207;SDS011;67481;50.244;18.288;2023-04-03T00:00:06;8.85;;;3.53;;
78207;SDS011;67481;50.244;18.288;2023-04-03T00:02:52;8.05;;;2.85;;
78207;SDS011;67481;50.244;18.288;2023-04-03T00:05:38;7.57;;;3.03;;
78207;SDS011;67481;50.244;18.288;2023-04-03T00:08:23;8.23;;;2.97;;
78207;SDS011;67481;50.244;18.288;2023-04-03T00:11:09;7.05;;;2.85;;
78207;SDS011;67481;50.244;18.288;2023-04-03T00:13:55;7.80;;;2.78;;
78207;SDS011;67481;50.244;18.288;2023-04-03T00:16:42;8.85;;;3.00;;
78207;SDS011;67481;50.244;18.288;2023-04-03T00:19:27;7.85;;;2.78;;
78207;SDS011;67481;50.244;18.288;2023-04-03T00:22:13;11.00;;;2.78;;
78207;SDS011;67481;50.244;18.288;2023-04-03T00:24:59;11.48;;;2.80;;
78207;SDS011;67481;50.244;18.288;2023-04-03T00:27:44;7.35;;;2.40;;
78207;SDS011;67481;50.244;18.288;2023-04-03T00:30:30;8.25;;;2.58;;
78207;SDS011;67481;50.244;18.288;2023-04-03T00:33:16;9.07;;;2.55;;
78207;SDS011;67481;50.244;18.288;2023-04-03T00:36:06;6.15;;;2.05;;
78207;SDS011;67481;50.244;18.288;2023-04-03T00:38:55;6.60;;;2.30;;
78207;SDS011;67481;50.244;18.288;2023-04-03T00:41:41;8.75;;;2.40;;
78207;SDS011;67481;50.244;18.288;2023-04-03T00:47:18;8.52;;;2.35;;
78207;SDS011;67481;50.244;18.288;2023-04-03T00:50:04;6.07;;;2.10;;
78207;SDS011;67481;50.244;18.288;2023-04-03T00:52:51;7.47;;;1.92;;
78207;SDS011;67481;50.244;18.288;2023-04-03T00:55:37;6.10;;;2.20;;
78207;SDS011;67481;50.244;18.288;2023-04-03T00:58:25;9.35;;;2.22;;
78207;SDS011;67481;50.244;18.288;2023-04-03T01:01:17;7.28;;;2.08;;
78207;SDS011;67481;50.244;18.288;2023-04-03T01:04:05;7.80;;;1.98;;
78207;SDS011;67481;50.244;18.288;2023-04-03T01:06:52;5.78;;;1.75;;
78207;SDS011;67481;50.244;18.288;2023-04-03T01:09:38;9.55;;;2.13;;
78207;SDS011;67481;50.244;18.288;2023-04-03T01:15:12;8.77;;;2.00;;
78207;SDS011;67481;50.244;18.288;2023-04-03T01:18:00;7.78;;;1.73;;
78207;SDS011;67481;50.244;18.288;2023-04-03T01:23:50;6.28;;;1.70;;
78207;SDS011;67481;50.244;18.288;2023-04-03T01:26:42;8.05;;;1.65;;
78207;SDS011;67481;50.244;18.288;2023-04-03T01:29:28;6.95;;;1.60;;
78207;SDS011;67481;50.244;18.288;2023-04-03T01:32:14;7.03;;;1.55;;
78207;SDS011;67481;50.244;18.288;2023-04-03T01:35:00;6.30;;;1.67;;
78207;SDS011;67481;50.244;18.288;2023-04-03T01:37:45;5.18;;;1.48;;
78207;SDS011;67481;50.244;18.288;2023-04-03T01:40:31;7.00;;;1.42;;
78207;SDS011;67481;50.244;18.288;2023-04-03T01:43:17;6.32;;;1.20;;
78207;SDS011;67481;50.244;18.288;2023-04-03T01:46:02;8.02;;;1.45;;
78207;SDS011;67481;50.244;18.288;2023-04-03T01:48:48;6.20;;;1.77;;
78207;SDS011;67481;50.244;18.288;2023-04-03T01:51:34;7.30;;;1.70;;
78207;SDS011;67481;50.244;18.288;2023-04-03T01:54:20;5.63;;;1.35;;
78207;SDS011;67481;50.244;18.288;2023-04-03T01:57:06;7.55;;;1.55;;
78207;SDS011;67481;50.244;18.288;2023-04-03T01:59:52;8.30;;;1.70;;
78207;SDS011;67481;50.244;18.288;2023-04-03T02:02:37;5.30;;;1.17;;
78207;SDS011;67481;50.244;18.288;2023-04-03T02:05:23;6.05;;;1.30;;
78207;SDS011;67481;50.244;18.288;2023-04-03T02:08:09;8.10;;;1.80;;
78207;SDS011;67481;50.244;18.288;2023-04-03T02:10:55;5.22;;;1.23;;
78207;SDS011;67481;50.244;18.288;2023-04-03T02:13:41;7.07;;;1.50;;
78207;SDS011;67481;50.244;18.288;2023-04-03T02:16:26;6.55;;;1.40;;
78207;SDS011;67481;50.244;18.288;2023-04-03T02:19:14;6.45;;;1.70;;
78207;SDS011;67481;50.244;18.288;2023-04-03T02:22:00;7.50;;;1.50;;
78207;SDS011;67481;50.244;18.288;2023-04-03T02:24:45;6.57;;;1.30;;
78207;SDS011;67481;50.244;18.288;2023-04-03T02:27:32;6.93;;;1.65;;
78207;SDS011;67481;50.244;18.288;2023-04-03T02:30:18;4.93;;;1.17;;
78207;SDS011;67481;50.244;18.288;2023-04-03T02:33:04;7.25;;;1.30;;
78207;SDS011;67481;50.244;18.288;2023-04-03T02:35:54;6.07;;;1.13;;
78207;SDS011;67481;50.244;18.288;2023-04-03T02:38:40;4.82;;;0.98;;
78207;SDS011;67481;50.244;18.288;2023-04-03T02:41:28;5.30;;;1.23;;
78207;SDS011;67481;50.244;18.288;2023-04-03T02:44:21;6.63;;;0.93;;
78207;SDS011;67481;50.244;18.288;2023-04-03T02:47:10;7.47;;;1.50;;
78207;SDS011;67481;50.244;18.288;2023-04-03T02:49:56;6.50;;;1.23;;
78207;SDS011;67481;50.244;18.288;2023-04-03T02:52:41;5.40;;;1.38;;
78207;SDS011;67481;50.244;18.288;2023-04-03T02:55:27;5.57;;;1.40;;
78207;SDS011;67481;50.244;18.288;2023-04-03T02:58:14;5.35;;;1.23;;
78207;SDS011;67481;50.244;18.288;2023-04-03T03:01:00;5.07;;;1.08;;
78207;SDS011;67481;50.244;18.288;2023-04-03T03:03:45;6.97;;;1.17;;
78207;SDS011;67481;50.244;18.288;2023-04-03T03:06:31;5.10;;;1.30;;
78207;SDS011;67481;50.244;18.288;2023-04-03T03:09:17;5.13;;;0.80;;
78207;SDS011;67481;50.244;18.288;2023-04-03T03:12:03;5.25;;;0.73;;
78207;SDS011;67481;50.244;18.288;2023-04-03T03:14:48;4.00;;;0.93;;
78207;SDS011;67481;50.244;18.288;2023-04-03T03:17:36;5.35;;;1.30;;
78207;SDS011;67481;50.244;18.288;2023-04-03T03:20:22;6.00;;;1.02;;
78207;SDS011;67481;50.244;18.288;2023-04-03T03:23:08;4.82;;;0.98;;
78207;SDS011;67481;50.244;18.288;2023-04-03T03:25:57;5.60;;;0.85;;
78207;SDS011;67481;50.244;18.288;2023-04-03T03:28:43;8.75;;;1.27;;
78207;SDS011;67481;50.244;18.288;2023-04-03T03:31:29;8.68;;;1.23;;
78207;SDS011;67481;50.244;18.288;2023-04-03T03:34:15;5.88;;;1.00;;
78207;SDS011;67481;50.244;18.288;2023-04-03T03:37:01;6.38;;;0.93;;
78207;SDS011;67481;50.244;18.288;2023-04-03T03:39:46;5.22;;;0.98;;
78207;SDS011;67481;50.244;18.288;2023-04-03T03:42:32;4.47;;;0.88;;
78207;SDS011;67481;50.244;18.288;2023-04-03T03:45:19;5.80;;;1.30;;
78207;SDS011;67481;50.244;18.288;2023-04-03T03:48:05;5.25;;;0.98;;
78207;SDS011;67481;50.244;18.288;2023-04-03T03:50:51;5.15;;;1.10;;
78207;SDS011;67481;50.244;18.288;2023-04-03T03:53:41;4.68;;;1.00;;
78207;SDS011;67481;50.244;18.288;2023-04-03T03:56:31;4.53;;;0.82;;
78207;SDS011;67481;50.244;18.288;2023-04-03T03:59:17;7.72;;;0.93;;
78207;SDS011;67481;50.244;18.288;2023-04-03T04:02:03;3.80;;;0.82;;
78207;SDS011;67481;50.244;18.288;2023-04-03T04:04:50;4.80;;;1.00;;
78207;SDS011;67481;50.244;18.288;2023-04-03T04:07:35;7.18;;;1.35;;
78207;SDS011;67481;50.244;18.288;2023-04-03T04:10:21;4.93;;;0.88;;
78207;SDS011;67481;50.244;18.288;2023-04-03T04:13:07;7.68;;;1.20;;
78207;SDS011;67481;50.244;18.288;2023-04-03T04:15:53;4.85;;;0.93;;
78207;SDS011;67481;50.244;18.288;2023-04-03T04:18:39;5.15;;;0.88;;
78207;SDS011;67481;50.244;18.288;2023-04-03T04:21:26;4.32;;;0.98;;
78207;SDS011;67481;50.244;18.288;2023-04-03T04:24:12;4.93;;;1.20;;
78207;SDS011;67481;50.244;18.288;2023-04-03T04:26:58;6.40;;;1.15;;
78207;SDS011;67481;50.244;18.288;2023-04-03T04:29:43;5.20;;;1.02;;
78207;SDS011;67481;50.244;18.288;2023-04-03T04:32:29;3.53;;;1.13;;
78207;SDS011;67481;50.244;18.288;2023-04-03T04:35:17;4.85;;;0.90;;
78207;SDS011;67481;50.244;18.288;2023-04-03T04:38:05;4.68;;;0.98;;
78207;SDS011;67481;50.244;18.288;2023-04-03T04:40:51;5.13;;;1.02;;
78207;SDS011;67481;50.244;18.288;2023-04-03T04:43:37;4.38;;;0.73;;
78207;SDS011;67481;50.244;18.288;2023-04-03T04:46:23;4.53;;;1.00;;
78207;SDS011;67481;50.244;18.288;2023-04-03T04:49:15;5.15;;;0.98;;
78207;SDS011;67481;50.244;18.288;2023-04-03T04:52:00;4.03;;;0.93;;
78207;SDS011;67481;50.244;18.288;2023-04-03T04:54:49;4.60;;;1.10;;
78207;SDS011;67481;50.244;18.288;2023-04-03T04:57:35;5.80;;;1.30;;
78207;SDS011;67481;50.244;18.288;2023-04-03T05:00:22;6.25;;;1.10;;
78207;SDS011;67481;50.244;18.288;2023-04-03T05:03:08;5.57;;;1.08;;
78207;SDS011;67481;50.244;18.288;2023-04-03T05:05:54;5.30;;;1.05;;
78207;SDS011;67481;50.244;18.288;2023-04-03T05:08:40;5.53;;;1.02;;
78207;SDS011;67481;50.244;18.288;2023-04-03T05:11:26;4.70;;;1.10;;
78207;SDS011;67481;50.244;18.288;2023-04-03T05:14:15;6.72;;;1.33;;
78207;SDS011;67481;50.244;18.288;2023-04-03T05:17:01;5.30;;;1.00;;
78207;SDS011;67481;50.244;18.288;2023-04-03T05:19:50;3.72;;;0.90;;
78207;SDS011;67481;50.244;18.288;2023-04-03T05:22:38;4.53;;;1.15;;
78207;SDS011;67481;50.244;18.288;2023-04-03T05:25:27;6.18;;;1.00;;
78207;SDS011;67481;50.244;18.288;2023-04-03T05:28:14;4.20;;;0.80;;
78207;SDS011;67481;50.244;18.288;2023-04-03T05:31:00;5.72;;;1.48;;
78207;SDS011;67481;50.244;18.288;2023-04-03T05:33:51;7.07;;;1.38;;
78207;SDS011;67481;50.244;18.288;2023-04-03T05:36:36;8.50;;;1.20;;
78207;SDS011;67481;50.244;18.288;2023-04-03T05:39:25;5.30;;;1.15;;
78207;SDS011;67481;50.244;18.288;2023-04-03T05:42:10;9.38;;;1.50;;
78207;SDS011;67481;50.244;18.288;2023-04-03T05:44:57;6.10;;;1.73;;
78207;SDS011;67481;50.244;18.288;2023-04-03T05:47:43;4.78;;;1.23;;
78207;SDS011;67481;50.244;18.288;2023-04-03T05:50:30;7.65;;;1.92;;
78207;SDS011;67481;50.244;18.288;2023-04-03T05:53:17;6.93;;;1.67;;
78207;SDS011;67481;50.244;18.288;2023-04-03T05:56:08;6.25;;;1.45;;
78207;SDS011;67481;50.244;18.288;2023-04-03T05:58:59;7.85;;;1.58;;
78207;SDS011;67481;50.244;18.288;2023-04-03T06:01:46;7.50;;;1.42;;
78207;SDS011;67481;50.244;18.288;2023-04-03T06:04:32;5.05;;;1.10;;
78207;SDS011;67481;50.244;18.288;2023-04-03T06:07:18;5.70;;;1.42;;
78207;SDS011;67481;50.244;18.288;2023-04-03T06:10:08;6.35;;;1.45;;
78207;SDS011;67481;50.244;18.288;2023-04-03T06:12:54;6.30;;;1.50;;
78207;SDS011;67481;50.244;18.288;2023-04-03T06:15:41;8.02;;;1.60;;
78207;SDS011;67481;50.244;18.288;2023-04-03T06:18:27;9.15;;;1.50;;
78207;SDS011;67481;50.244;18.288;2023-04-03T06:21:13;6.63;;;1.25;;
78207;SDS011;67481;50.244;18.288;2023-04-03T06:23:58;7.22;;;1.80;;
78207;SDS011;67481;50.244;18.288;2023-04-03T06:26:44;6.43;;;1.77;;
78207;SDS011;67481;50.244;18.288;2023-04-03T06:29:30;5.63;;;1.55;;
78207;SDS011;67481;50.244;18.288;2023-04-03T06:32:16;5.80;;;1.20;;
78207;SDS011;67481;50.244;18.288;2023-04-03T06:35:02;6.00;;;1.52;;
78207;SDS011;67481;50.244;18.288;2023-04-03T06:37:48;6.13;;;1.05;;
78207;SDS011;67481;50.244;18.288;2023-04-03T06:40:34;7.50;;;1.50;;
78207;SDS011;67481;50.244;18.288;2023-04-03T06:43:20;6.07;;;1.10;;
78207;SDS011;67481;50.244;18.288;2023-04-03T06:46:13;7.57;;;1.50;;
78207;SDS011;67481;50.244;18.288;2023-04-03T06:49:02;6.75;;;1.45;;
78207;SDS011;67481;50.244;18.288;2023-04-03T06:51:49;4.90;;;1.17;;
78207;SDS011;67481;50.244;18.288;2023-04-03T06:54:36;5.85;;;1.40;;
78207;SDS011;67481;50.244;18.288;2023-04-03T06:57:23;7.35;;;1.60;;
78207;SDS011;67481;50.244;18.288;2023-04-03T07:00:10;7.22;;;1.70;;
78207;SDS011;67481;50.244;18.288;2023-04-03T07:02:56;6.45;;;1.33;;
78207;SDS011;67481;50.244;18.288;2023-04-03T07:05:42;5.68;;;1.30;;
78207;SDS011;67481;50.244;18.288;2023-04-03T07:08:30;5.03;;;1.00;;
78207;SDS011;67481;50.244;18.288;2023-04-03T07:11:16;3.88;;;1.00;;
78207;SDS011;67481;50.244;18.288;2023-04-03T07:14:02;8.85;;;1.30;;
78207;SDS011;67481;50.244;18.288;2023-04-03T07:16:48;5.72;;;1.30;;
78207;SDS011;67481;50.244;18.288;2023-04-03T07:19:34;4.35;;;0.80;;
78207;SDS011;67481;50.244;18.288;2023-04-03T07:22:19;6.40;;;1.23;;
78207;SDS011;67481;50.244;18.288;2023-04-03T07:25:05;7.20;;;1.30;;
78207;SDS011;67481;50.244;18.288;2023-04-03T07:27:52;5.70;;;1.55;;
78207;SDS011;67481;50.244;18.288;2023-04-03T07:30:46;5.97;;;1.20;;
78207;SDS011;67481;50.244;18.288;2023-04-03T07:33:54;4.43;;;0.80;;
78207;SDS011;67481;50.244;18.288;2023-04-03T07:36:39;7.25;;;1.60;;
78207;SDS011;67481;50.244;18.288;2023-04-03T07:39:25;5.43;;;1.10;;
78207;SDS011;67481;50.244;18.288;2023-04-03T07:42:11;5.97;;;1.35;;
78207;SDS011;67481;50.244;18.288;2023-04-03T07:44:58;7.43;;;1.52;;
78207;SDS011;67481;50.244;18.288;2023-04-03T07:47:44;5.22;;;1.10;;
78207;SDS011;67481;50.244;18.288;2023-04-03T07:50:30;6.53;;;1.50;;
78207;SDS011;67481;50.244;18.288;2023-04-03T07:53:17;6.25;;;1.23;;
78207;SDS011;67481;50.244;18.288;2023-04-03T07:56:03;6.65;;;1.60;;
78207;SDS011;67481;50.244;18.288;2023-04-03T07:58:49;7.40;;;1.58;;
78207;SDS011;67481;50.244;18.288;2023-04-03T08:01:34;6.15;;;1.60;;
78207;SDS011;67481;50.244;18.288;2023-04-03T08:04:20;6.63;;;1.50;;
78207;SDS011;67481;50.244;18.288;2023-04-03T08:07:06;6.72;;;1.52;;
78207;SDS011;67481;50.244;18.288;2023-04-03T08:09:52;6.38;;;1.38;;
78207;SDS011;67481;50.244;18.288;2023-04-03T08:12:37;5.00;;;1.23;;
78207;SDS011;67481;50.244;18.288;2023-04-03T08:15:23;5.28;;;1.02;;
78207;SDS011;67481;50.244;18.288;2023-04-03T08:18:08;6.45;;;1.10;;
78207;SDS011;67481;50.244;18.288;2023-04-03T08:20:54;4.72;;;0.90;;
78207;SDS011;67481;50.244;18.288;2023-04-03T08:23:40;6.88;;;1.30;;
78207;SDS011;67481;50.244;18.288;2023-04-03T08:26:29;6.30;;;1.02;;
78207;SDS011;67481;50.244;18.288;2023-04-03T08:29:14;4.45;;;0.93;;
78207;SDS011;67481;50.244;18.288;2023-04-03T08:32:00;5.07;;;1.00;;
78207;SDS011;67481;50.244;18.288;2023-04-03T08:34:45;5.88;;;1.10;;
78207;SDS011;67481;50.244;18.288;2023-04-03T08:37:31;6.90;;;1.38;;
78207;SDS011;67481;50.244;18.288;2023-04-03T08:40:20;5.97;;;0.85;;
78207;SDS011;67481;50.244;18.288;2023-04-03T08:45:53;6.55;;;1.20;;
78207;SDS011;67481;50.244;18.288;2023-04-03T08:48:41;5.60;;;1.23;;
78207;SDS011;67481;50.244;18.288;2023-04-03T08:51:28;4.55;;;1.00;;
78207;SDS011;67481;50.244;18.288;2023-04-03T08:54:19;4.80;;;0.95;;
78207;SDS011;67481;50.244;18.288;2023-04-03T08:57:10;5.32;;;1.10;;
78207;SDS011;67481;50.244;18.288;2023-04-03T08:59:57;4.85;;;0.70;;
78207;SDS011;67481;50.244;18.288;2023-04-03T09:02:46;4.13;;;0.80;;
78207;SDS011;67481;50.244;18.288;2023-04-03T09:18:08;3.80;;;0.70;;
78207;SDS011;67481;50.244;18.288;2023-04-03T09:21:11;6.18;;;0.75;;
78207;SDS011;67481;50.244;18.288;2023-04-03T09:24:02;4.35;;;0.60;;
78207;SDS011;67481;50.244;18.288;2023-04-03T09:29:45;4.55;;;0.63;;
78207;SDS011;67481;50.244;18.288;2023-04-03T09:32:32;5.78;;;0.82;;
78207;SDS011;67481;50.244;18.288;2023-04-03T09:35:21;4.13;;;0.82;;
78207;SDS011;67481;50.244;18.288;2023-04-03T09:38:24;3.67;;;0.82;;
78207;SDS011;67481;50.244;18.288;2023-04-03T09:41:15;3.30;;;0.95;;
78207;SDS011;67481;50.244;18.288;2023-04-03T09:44:02;4.93;;;0.93;;
78207;SDS011;67481;50.244;18.288;2023-04-03T09:46:48;3.40;;;0.57;;
78207;SDS011;67481;50.244;18.288;2023-04-03T09:49:34;4.68;;;0.80;;
78207;SDS011;67481;50.244;18.288;2023-04-03T09:52:23;4.55;;;0.85;;
78207;SDS011;67481;50.244;18.288;2023-04-03T09:55:14;4.25;;;0.80;;
78207;SDS011;67481;50.244;18.288;2023-04-03T09:58:01;5.53;;;0.90;;
78207;SDS011;67481;50.244;18.288;2023-04-03T10:00:57;4.13;;;0.93;;
78207;SDS011;67481;50.244;18.288;2023-04-03T10:03:43;3.72;;;0.57;;
78207;SDS011;67481;50.244;18.288;2023-04-03T10:12:11;3.17;;;0.40;;
78207;SDS011;67481;50.244;18.288;2023-04-03T10:14:59;3.17;;;0.50;;
78207;SDS011;67481;50.244;18.288;2023-04-03T10:17:50;3.60;;;0.50;;
78207;SDS011;67481;50.244;18.288;2023-04-03T10:20:44;5.15;;;0.68;;
78207;SDS011;67481;50.244;18.288;2023-04-03T10:23:33;3.45;;;0.55;;
78207;SDS011;67481;50.244;18.288;2023-04-03T10:26:32;3.75;;;0.50;;
78207;SDS011;67481;50.244;18.288;2023-04-03T10:32:45;3.72;;;0.82;;
78207;SDS011;67481;50.244;18.288;2023-04-03T10:48:16;4.00;;;0.60;;
78207;SDS011;67481;50.244;18.288;2023-04-03T10:54:09;5.15;;;0.63;;
78207;SDS011;67481;50.244;18.288;2023-04-03T10:57:02;3.47;;;0.70;;
78207;SDS011;67481;50.244;18.288;2023-04-03T10:59:58;3.28;;;0.68;;
78207;SDS011;67481;50.244;18.288;2023-04-03T11:02:51;3.25;;;0.60;;
78207;SDS011;67481;50.244;18.288;2023-04-03T11:05:42;4.22;;;0.50;;
78207;SDS011;67481;50.244;18.288;2023-04-03T11:08:44;3.05;;;0.68;;
78207;SDS011;67481;50.244;18.288;2023-04-03T11:11:33;3.40;;;0.47;;
78207;SDS011;67481;50.244;18.288;2023-04-03T11:14:26;3.15;;;0.40;;
78207;SDS011;67481;50.244;18.288;2023-04-03T11:20:18;4.15;;;0.50;;
78207;SDS011;67481;50.244;18.288;2023-04-03T11:23:19;5.65;;;0.65;;
78207;SDS011;67481;50.244;18.288;2023-04-03T11:26:11;6.70;;;0.57;;
78207;SDS011;67481;50.244;18.288;2023-04-03T11:29:01;3.50;;;0.52;;
78207;SDS011;67481;50.244;18.288;2023-04-03T11:34:44;3.83;;;0.73;;
78207;SDS011;67481;50.244;18.288;2023-04-03T11:37:33;4.10;;;1.02;;
78207;SDS011;67481;50.244;18.288;2023-04-03T11:43:22;3.08;;;0.80;;
78207;SDS011;67481;50.244;18.288;2023-04-03T11:46:12;3.00;;;0.60;;
78207;SDS011;67481;50.244;18.288;2023-04-03T11:48:58;4.97;;;0.82;;
78207;SDS011;67481;50.244;18.288;2023-04-03T11:51:44;5.38;;;0.85;;
78207;SDS011;67481;50.244;18.288;2023-04-03T11:58:32;2.85;;;0.68;;
78207;SDS011;67481;50.244;18.288;2023-04-03T12:09:52;5.43;;;0.90;;
78207;SDS011;67481;50.244;18.288;2023-04-03T12:15:41;4.85;;;0.93;;
78207;SDS011;67481;50.244;18.288;2023-04-03T12:27:40;4.00;;;0.77;;
78207;SDS011;67481;50.244;18.288;2023-04-03T12:30:27;4.10;;;0.75;;
78207;SDS011;67481;50.244;18.288;2023-04-03T12:33:31;4.15;;;0.82;;
78207;SDS011;67481;50.244;18.288;2023-04-03T12:45:59;3.80;;;0.70;;
78207;SDS011;67481;50.244;18.288;2023-04-03T12:48:58;4.07;;;0.90;;
78207;SDS011;67481;50.244;18.288;2023-04-03T12:51:44;4.88;;;0.70;;
78207;SDS011;67481;50.244;18.288;2023-04-03T12:54:32;3.17;;;0.70;;
78207;SDS011;67481;50.244;18.288;2023-04-03T12:57:21;5.07;;;0.95;;
78207;SDS011;67481;50.244;18.288;2023-04-03T13:00:53;3.90;;;0.80;;
78207;SDS011;67481;50.244;18.288;2023-04-03T13:03:26;4.10;;;0.93;;
78207;SDS011;67481;50.244;18.288;2023-04-03T13:06:30;4.00;;;0.80;;
78207;SDS011;67481;50.244;18.288;2023-04-03T13:12:11;3.75;;;0.80;;
78207;SDS011;67481;50.244;18.288;2023-04-03T13:15:00;2.47;;;0.70;;
78207;SDS011;67481;50.244;18.288;2023-04-03T13:17:49;3.70;;;0.93;;
78207;SDS011;67481;50.244;18.288;2023-04-03T13:20:37;4.03;;;0.77;;
78207;SDS011;67481;50.244;18.288;2023-04-03T13:23:23;4.88;;;0.80;;
78207;SDS011;67481;50.244;18.288;2023-04-03T13:26:11;3.65;;;0.73;;
78207;SDS011;67481;50.244;18.288;2023-04-03T13:32:28;4.53;;;0.80;;
78207;SDS011;67481;50.244;18.288;2023-04-03T13:35:29;3.75;;;0.93;;
78207;SDS011;67481;50.244;18.288;2023-04-03T13:53:11;5.68;;;1.20;;
78207;SDS011;67481;50.244;18.288;2023-04-03T13:55:59;5.25;;;1.40;;
78207;SDS011;67481;50.244;18.288;2023-04-03T14:05:00;4.35;;;0.90;;
78207;SDS011;67481;50.244;18.288;2023-04-03T14:07:51;4.95;;;1.30;;
78207;SDS011;67481;50.244;18.288;2023-04-03T14:10:38;4.28;;;0.95;;
78207;SDS011;67481;50.244;18.288;2023-04-03T14:13:24;4.97;;;1.10;;
78207;SDS011;67481;50.244;18.288;2023-04-03T14:16:12;4.20;;;1.40;;
78207;SDS011;67481;50.244;18.288;2023-04-03T14:19:00;4.53;;;1.33;;
78207;SDS011;67481;50.244;18.288;2023-04-03T14:21:46;4.97;;;1.20;;
78207;SDS011;67481;50.244;18.288;2023-04-03T14:24:31;5.60;;;1.33;;
78207;SDS011;67481;50.244;18.288;2023-04-03T14:27:28;5.07;;;1.25;;
78207;SDS011;67481;50.244;18.288;2023-04-03T14:30:34;5.60;;;1.33;;
78207;SDS011;67481;50.244;18.288;2023-04-03T14:36:12;5.63;;;1.15;;
78207;SDS011;67481;50.244;18.288;2023-04-03T14:39:16;5.45;;;1.13;;
78207;SDS011;67481;50.244;18.288;2023-04-03T14:42:03;5.32;;;1.23;;
78207;SDS011;67481;50.244;18.288;2023-04-03T14:44:48;4.15;;;1.13;;
78207;SDS011;67481;50.244;18.288;2023-04-03T14:47:34;4.55;;;1.00;;
78207;SDS011;67481;50.244;18.288;2023-04-03T14:50:26;6.47;;;1.20;;
78207;SDS011;67481;50.244;18.288;2023-04-03T14:53:12;6.13;;;1.33;;
78207;SDS011;67481;50.244;18.288;2023-04-03T14:56:00;3.70;;;1.00;;
78207;SDS011;67481;50.244;18.288;2023-04-03T14:58:46;4.28;;;1.05;;
78207;SDS011;67481;50.244;18.288;2023-04-03T15:01:35;3.75;;;0.93;;
78207;SDS011;67481;50.244;18.288;2023-04-03T15:04:21;5.13;;;1.05;;
78207;SDS011;67481;50.244;18.288;2023-04-03T15:07:07;5.35;;;0.95;;
78207;SDS011;67481;50.244;18.288;2023-04-03T15:09:54;5.60;;;1.20;;
78207;SDS011;67481;50.244;18.288;2023-04-03T15:12:42;5.10;;;1.00;;
78207;SDS011;67481;50.244;18.288;2023-04-03T15:15:28;4.45;;;1.23;;
78207;SDS011;67481;50.244;18.288;2023-04-03T15:18:20;5.47;;;1.20;;
78207;SDS011;67481;50.244;18.288;2023-04-03T15:21:08;4.57;;;0.93;;
78207;SDS011;67481;50.244;18.288;2023-04-03T15:23:53;4.22;;;1.10;;
78207;SDS011;67481;50.244;18.288;2023-04-03T15:26:39;5.28;;;1.35;;
78207;SDS011;67481;50.244;18.288;2023-04-03T15:29:26;4.38;;;1.13;;
78207;SDS011;67481;50.244;18.288;2023-04-03T15:32:13;3.50;;;0.93;;
78207;SDS011;67481;50.244;18.288;2023-04-03T15:34:58;6.47;;;1.25;;
78207;SDS011;67481;50.244;18.288;2023-04-03T15:37:44;4.70;;;1.13;;
78207;SDS011;67481;50.244;18.288;2023-04-03T15:40:30;3.78;;;1.05;;
78207;SDS011;67481;50.244;18.288;2023-04-03T15:43:15;5.47;;;1.05;;
78207;SDS011;67481;50.244;18.288;2023-04-03T15:46:02;3.90;;;1.10;;
78207;SDS011;67481;50.244;18.288;2023-04-03T15:48:47;4.07;;;1.05;;
78207;SDS011;67481;50.244;18.288;2023-04-03T15:51:35;6.00;;;1.23;;
78207;SDS011;67481;50.244;18.288;2023-04-03T15:54:20;4.10;;;1.38;;
78207;SDS011;67481;50.244;18.288;2023-04-03T15:57:06;5.35;;;1.10;;
78207;SDS011;67481;50.244;18.288;2023-04-03T15:59:52;5.28;;;1.30;;
78207;SDS011;67481;50.244;18.288;2023-04-03T16:02:38;4.95;;;1.42;;
78207;SDS011;67481;50.244;18.288;2023-04-03T16:05:24;4.85;;;1.33;;
78207;SDS011;67481;50.244;18.288;2023-04-03T16:08:10;4.40;;;1.20;;
78207;SDS011;67481;50.244;18.288;2023-04-03T16:10:55;7.28;;;1.35;;
78207;SDS011;67481;50.244;18.288;2023-04-03T16:13:41;4.68;;;1.33;;
78207;SDS011;67481;50.244;18.288;2023-04-03T16:16:27;6.05;;;1.40;;
78207;SDS011;67481;50.244;18.288;2023-04-03T16:19:12;5.30;;;1.40;;
78207;SDS011;67481;50.244;18.288;2023-04-03T16:21:58;4.15;;;1.10;;
78207;SDS011;67481;50.244;18.288;2023-04-03T16:24:44;7.38;;;1.90;;
78207;SDS011;67481;50.244;18.288;2023-04-03T16:27:29;4.63;;;1.35;;
78207;SDS011;67481;50.244;18.288;2023-04-03T16:30:16;5.53;;;1.35;;
78207;SDS011;67481;50.244;18.288;2023-04-03T16:33:01;6.13;;;1.40;;
78207;SDS011;67481;50.244;18.288;2023-04-03T16:35:49;5.28;;;1.48;;
78207;SDS011;67481;50.244;18.288;2023-04-03T16:41:21;5.22;;;1.20;;
78207;SDS011;67481;50.244;18.288;2023-04-03T16:44:08;5.20;;;1.60;;
78207;SDS011;67481;50.244;18.288;2023-04-03T16:46:54;7.25;;;1.63;;
78207;SDS011;67481;50.244;18.288;2023-04-03T16:49:40;6.50;;;1.33;;
78207;SDS011;67481;50.244;18.288;2023-04-03T16:52:26;4.70;;;1.30;;
78207;SDS011;67481;50.244;18.288;2023-04-03T16:55:12;4.75;;;1.60;;
78207;SDS011;67481;50.244;18.288;2023-04-03T16:57:58;5.28;;;1.30;;
78207;SDS011;67481;50.244;18.288;2023-04-03T17:00:44;4.68;;;0.95;;
78207;SDS011;67481;50.244;18.288;2023-04-03T17:06:18;5.72;;;1.40;;
78207;SDS011;67481;50.244;18.288;2023-04-03T17:09:05;6.28;;;1.63;;
78207;SDS011;67481;50.244;18.288;2023-04-03T17:11:51;5.95;;;1.50;;
78207;SDS011;67481;50.244;18.288;2023-04-03T17:14:37;5.70;;;1.33;;
78207;SDS011;67481;50.244;18.288;2023-04-03T17:17:23;5.63;;;1.13;;
78207;SDS011;67481;50.244;18.288;2023-04-03T17:20:10;5.75;;;1.33;;
78207;SDS011;67481;50.244;18.288;2023-04-03T17:22:56;5.32;;;1.60;;
78207;SDS011;67481;50.244;18.288;2023-04-03T17:25:41;5.40;;;1.65;;
78207;SDS011;67481;50.244;18.288;2023-04-03T17:28:27;5.32;;;1.45;;
78207;SDS011;67481;50.244;18.288;2023-04-03T17:31:13;5.15;;;1.40;;
78207;SDS011;67481;50.244;18.288;2023-04-03T17:33:58;5.45;;;1.40;;
78207;SDS011;67481;50.244;18.288;2023-04-03T17:36:47;5.32;;;1.50;;
78207;SDS011;67481;50.244;18.288;2023-04-03T17:39:33;7.30;;;2.03;;
78207;SDS011;67481;50.244;18.288;2023-04-03T17:42:20;7.28;;;1.80;;
78207;SDS011;67481;50.244;18.288;2023-04-03T17:45:06;7.45;;;1.77;;
78207;SDS011;67481;50.244;18.288;2023-04-03T17:47:52;6.00;;;1.90;;
78207;SDS011;67481;50.244;18.288;2023-04-03T17:50:38;6.03;;;1.73;;
78207;SDS011;67481;50.244;18.288;2023-04-03T17:53:24;6.13;;;1.98;;
78207;SDS011;67481;50.244;18.288;2023-04-03T17:56:13;8.18;;;2.22;;
78207;SDS011;67481;50.244;18.288;2023-04-03T17:59:00;7.63;;;2.10;;
78207;SDS011;67481;50.244;18.288;2023-04-03T18:01:46;6.35;;;1.85;;
78207;SDS011;67481;50.244;18.288;2023-04-03T18:04:32;5.63;;;1.77;;
78207;SDS011;67481;50.244;18.288;2023-04-03T18:07:18;6.10;;;1.80;;
78207;SDS011;67481;50.244;18.288;2023-04-03T18:10:05;6.03;;;1.75;;
78207;SDS011;67481;50.244;18.288;2023-04-03T18:12:53;6.60;;;1.80;;
78207;SDS011;67481;50.244;18.288;2023-04-03T18:15:39;6.10;;;2.00;;
78207;SDS011;67481;50.244;18.288;2023-04-03T18:18:29;6.72;;;1.90;;
78207;SDS011;67481;50.244;18.288;2023-04-03T18:21:16;8.60;;;2.30;;
78207;SDS011;67481;50.244;18.288;2023-04-03T18:24:10;6.85;;;2.25;;
78207;SDS011;67481;50.244;18.288;2023-04-03T18:27:01;7.97;;;2.28;;
78207;SDS011;67481;50.244;18.288;2023-04-03T18:29:49;6.57;;;2.30;;
78207;SDS011;67481;50.244;18.288;2023-04-03T18:32:40;7.80;;;2.25;;
78207;SDS011;67481;50.244;18.288;2023-04-03T18:35:25;6.35;;;1.77;;
78207;SDS011;67481;50.244;18.288;2023-04-03T18:38:12;8.07;;;1.92;;
78207;SDS011;67481;50.244;18.288;2023-04-03T18:41:01;6.40;;;2.13;;
78207;SDS011;67481;50.244;18.288;2023-04-03T18:43:48;7.03;;;2.05;;